• Join FlightAware (Why Join?)
  • Login
  • US Flag 
11:24AM EST


 

Airport Tracker/Info


-or-


 

Live Flight TrackerFlight Track Log ✈ AWE3972 ✈ 01-Aug-2014 ✈ KPHL - KGSP

Flight Track Log - Related Links

Times and Time Zones

All times are in EDT time to prevent confusion due to time zone crossing. See the AWE3972 flight status page for this flight to view local times or setup timezone preferences in your user account.

Time Position Orientation Groundspeed Altitude Reporting Facility
EDT Latitude Longitude Course Direction KTS MPH feet Rate Location/Type
10:07AM 39.8667 -75.2833 237° Southwest 162 186 500  Level Philadelphia TRACON
10:08AM 39.8500 -75.3167 237° Southwest 169 194 1,800 2,040 Climbing Philadelphia TRACON
10:09AM 39.8500 -75.4000 270° West 224 258 4,000 2,220 Climbing Philadelphia TRACON
10:11AM 39.8386 -75.5697 265° West 290 334 8,200 2,280 Climbing New York Center
10:12AM 39.8367 -75.6722 269° West 285 328 10,500 1,680 Climbing New York Center
10:12AM 39.8336 -75.7883 268° West 313 360 11,600 1,320 Climbing New York Center
10:13AM 39.7906 -75.8744 237° Southwest 331 381 13,100 1,680 Climbing New York Center
10:14AM 39.7233 -75.9803 230° Southwest 339 390 15,000 1,680 Climbing New York Center
10:16AM 39.6606 -76.0753 229° Southwest 351 404 16,600 1,320 Climbing New York Center
10:17AM 39.5914 -76.1894 232° Southwest 359 413 17,800 900 Climbing Washington Center
10:18AM 39.5303 -76.2831 230° Southwest 359 413 18,600 780 Climbing Washington Center
10:19AM 39.4672 -76.3872 232° Southwest 359 413 19,400 840 Climbing Washington Center
10:20AM 39.4019 -76.4858 229° Southwest 364 419 20,300 720 Climbing Washington Center
10:21AM 39.3408 -76.5764 229° Southwest 371 427 20,900 1,380 Climbing Washington Center
10:22AM 39.2794 -76.6747 231° Southwest 371 427 23,100 1,620 Climbing Washington Center
10:23AM 39.2203 -76.7650 230° Southwest 363 418 24,200 1,140 Climbing Washington Center
10:24AM 39.1631 -76.8578 232° Southwest 344 396 25,400 840 Climbing Washington Center
10:25AM 39.1039 -76.9478 230° Southwest 338 389 26,000 540 Climbing Washington Center
10:26AM 39.0444 -77.0375 230° Southwest 333 383 26,600 660 Climbing Washington Center
10:27AM 38.9725 -77.1161 220° Southwest 333 383 27,300 600 Climbing Washington Center
10:28AM 38.9006 -77.1947 220° Southwest 339 390 27,900 300 Climbing Washington Center
10:29AM 38.8244 -77.2756 220° Southwest 349 402 28,000  Climbing Washington Center
10:30AM 38.7481 -77.3617 221° Southwest 359 413 28,000  Level Washington Center
10:31AM 38.6656 -77.4503 220° Southwest 372 428 28,000  Level Washington Center
10:32AM 38.5764 -77.5461 220° Southwest 388 447 28,000  Level Washington Center
10:33AM 38.4936 -77.6369 221° Southwest 393 452 28,000  Level Washington Center
10:34AM 38.4108 -77.7247 220° Southwest 393 452 28,000  Level Washington Center
10:35AM 38.3300 -77.8150 221° Southwest 393 452 28,000  Level Washington Center
10:36AM 38.2469 -77.9025 220° Southwest 393 452 28,000 240 Level Washington Center
10:37AM 38.1658 -77.9925 221° Southwest 393 452 28,500 480 Climbing Washington Center
10:38AM 38.0850 -78.0769 219° Southwest 387 445 29,000 240 Climbing Washington Center
10:39AM 38.0081 -78.1586 220° Southwest 382 440 29,000  Level Washington Center
10:40AM 37.9456 -78.2539 230° Southwest 382 440 29,000  Level Washington Center
10:41AM 37.8744 -78.3542 228° Southwest 387 445 29,000  Level Washington Center
10:42AM 37.7992 -78.4564 227° Southwest 387 445 29,000  Level Washington Center
10:43AM 37.7297 -78.5614 230° Southwest 397 457 29,000  Level Washington Center
10:44AM 37.6497 -78.6764 229° Southwest 397 457 29,000  Level Washington Center
10:45AM 37.5869 -78.7656 228° Southwest 397 457 29,000  Level Washington Center
10:46AM 37.5067 -78.8800 229° Southwest 402 463 29,000  Level Washington Center
10:47AM 37.4414 -78.9739 229° Southwest 402 463 29,000  Level Washington Center
10:48AM 37.3675 -79.0778 228° Southwest 397 457 29,000  Level Washington Center
10:49AM 37.2936 -79.1842 229° Southwest 403 464 29,000  Level Washington Center
10:50AM 37.2106 -79.3003 228° Southwest 417 480 29,000 -480 Level Washington Center
10:51AM 37.1383 -79.4089 230° Southwest 410 472 28,100 -540 Descending Washington Center
10:52AM 37.0769 -79.5019 230° Southwest 405 466 28,000 -60 Descending Washington Center
10:53AM 37.0003 -79.6125 229° Southwest 392 451 28,000  Level Washington Center
10:54AM 36.9367 -79.7081 230° Southwest 398 458 28,000  Level Washington Center
10:55AM 36.8556 -79.8206 228° Southwest 398 458 28,000  Level Washington Center
10:57AM 36.6964 -80.0542 230° Southwest 389 448 28,000  Level Atlanta Center
10:58AM 36.6247 -80.1614 230° Southwest 396 456 28,000  Level Atlanta Center
10:59AM 36.5528 -80.2631 229° Southwest 396 456 28,000  Level Atlanta Center
11:00AM 36.4636 -80.3447 216° Southwest 396 456 28,000  Level Atlanta Center
11:01AM 36.3719 -80.4161 212° Southwest 396 456 28,000 -720 Level Atlanta Center
11:02AM 36.2781 -80.4844 210° Southwest 396 456 26,600 -1,380 Descending Atlanta Center
11:03AM 36.1903 -80.5528 212° Southwest 396 456 25,300 -1,380 Descending Atlanta Center
11:04AM 36.1003 -80.6183 210° Southwest 385 443 23,900 -1,500 Descending Atlanta Center
11:05AM 36.0083 -80.6864 211° Southwest 375 432 22,300 -1,620 Descending Atlanta Center
11:06AM 35.9594 -80.7269 214° Southwest 353 406 21,400 -1,500 Descending Atlanta Center
11:06AM 35.9225 -80.7489 206° Southwest 362 417 20,800 -1,560 Descending Atlanta Center
11:06AM 35.8836 -80.7839 216° Southwest 351 404 20,000 -1,440 Descending Atlanta Center
11:07AM 35.8406 -80.8111 207° Southwest 357 411 19,400 -1,500 Descending Atlanta Center
11:07AM 35.7997 -80.8433 213° Southwest 347 399 18,500 -1,500 Descending Atlanta Center
11:08AM 35.7586 -80.8706 208° Southwest 357 411 17,900 -1,380 Descending Atlanta Center
11:08AM 35.7117 -80.9083 213° Southwest 343 395 17,100 -1,320 Descending Atlanta Center
11:09AM 35.6767 -80.9300 207° Southwest 357 411 16,600 -1,380 Descending Atlanta Center
11:09AM 35.6297 -80.9675 213° Southwest 341 392 15,700 -1,440 Descending Atlanta Center
11:10AM 35.5947 -80.9894 207° Southwest 357 411 15,200 -1,140 Descending Atlanta Center
11:10AM 35.5561 -81.0239 216° Southwest 337 388 14,700 -1,140 Descending Atlanta Center
11:11AM 35.5150 -81.0511 208° Southwest 352 405 14,100 -1,320 Descending Atlanta Center
11:11AM 35.4825 -81.0828 218° Southwest 329 379 13,400 -1,140 Descending Atlanta Center
11:12AM 35.4522 -81.1297 232° Southwest 341 392 13,000 -360 Descending Atlanta Center
11:13AM 35.4144 -81.2050 238° Southwest 332 382 13,000  Level Atlanta Center
11:13AM 35.4022 -81.2258 234° Southwest 337 388 13,000  Level Atlanta Center
11:14AM 35.3706 -81.2931 240° Southwest 351 404 13,000  Level Atlanta Center
11:14AM 35.3483 -81.3294 233° Southwest 349 402 13,000 -420 Level Atlanta Center
11:15AM 35.3183 -81.3942 240° Southwest 359 413 12,600 -1,200 Descending Atlanta Center
11:15AM 35.2961 -81.4306 233° Southwest 359 413 11,800 -2,100 Descending Atlanta Center
11:17AM 35.2160 -81.5650 241° Southwest  Level FlightAware Approximate
11:24AM 34.8833 -82.2167 231° Southwest  Level FlightAware Approximate
11:25AM 34.8957 -82.2189 231° Southwest  Level Estimated
11:26AM 34.8957 -82.2189 231° Southwest  Level Estimated
11:27AM 34.8957 -82.2189 231° Southwest  Level Estimated
11:28AM 34.8957 -82.2189 231° Southwest  Level Estimated
11:29AM 34.8957 -82.2189 231° Southwest  Level Estimated
11:30AM 34.8957 -82.2189 231° Southwest  Level Estimated
11:31AM 34.8957 -82.2189 231° Southwest  Level Estimated
11:32AM 34.8957 -82.2189 231° Southwest  Level Estimated
11:33AM 34.8957 -82.2189 231° Southwest  Level Estimated